IN-0049 weather

Kohima Helipad
Kohima, Nagaland, India

Public forecast

Using degrees Celsius for public forecast. Weather courtesy of forecast.io.

METAR (pilot weather report)

Closest report is Imphal Airport, 55.5 nm (102.8 km) SSW. Retrieved 2019/08/20 09:00 UTC (16 minutes ago):

VEIM 200900Z 24010KT 4000 HZ SCT018 BKN100 31/23 Q1005 BECMG 5000 NOSIG

TAF (pilot weather forecast)

Forecast is more than 12 hours old.

Closest forecast is Imphal Airport, 55.5 nm (102.8 km) SSW. Retrieved 2017/12/28 12:00 UTC (2 years ago):

TAF VEIM 281100Z 2812/2821 06006KT 4000 BR FEW020 BECMG 2815/2817 00000KT 2000 BR